Terminal Aerodrome Forecast
Issued by NWS

Home | Current Version | Previous Version | Text Only | Print | Product List | Glossary On
Versions: 1 2 3 4 5 6 7 8 9 10 11 12 13 14 15 16 17 18 19 20 21 22 23 24 25 26 27 28 29 30 31 32 33 34 35 36 37 38 39
000
FTUS46 KEKA 232003 AAA
TAFACV
TAF AMD
KACV 232003Z 2320/2418 32008KT 3/4SM BR OVC002
      TEMPO 2320/2324 2SM BR OVC003
     FM240000 31008KT 6SM BR SCT002 SCT006
      TEMPO 2400/2402 1SM BR OVC002
     FM240200 VRB04KT 3/4SM BR OVC002
     FM240600 VRB03KT 1/4SM FG OVC001=

USA.gov is the U.S. government's official web portal to all federal, state and local government web resources and services.